Time;durP1;ratioP1;P1;durP2;ratioP2;P2;SDS_P1;SDS_P2;PMS_P1;PMS_P2;Temp;Humidity;BMP_temperature;BMP_pressure;BME280_temperature;BME280_humidity;BME280_pressure;Samples;Min_cycle;Max_cycle;Signal;HPM_P1;HPM_P2
2022/03/26 00:02:11;;;;;;;11.88;6.15;;;19.00;51.50;;;;;;5039401;28;20528;-57
2022/03/26 00:04:36;;;;;;;12.80;6.38;;;19.00;51.50;;;;;;5045509;28;20575;-57
2022/03/26 00:07:02;;;;;;;11.60;6.65;;;19.00;51.50;;;;;;5045406;28;20405;-57
2022/03/26 00:09:28;;;;;;;13.30;6.88;;;19.00;51.50;;;;;;5042179;28;20025;-57
2022/03/26 00:11:53;;;;;;;12.40;6.65;;;19.00;51.50;;;;;;5040095;28;20036;-57
2022/03/26 00:14:19;;;;;;;12.27;6.10;;;19.00;51.50;;;;;;5046794;28;20029;-57
2022/03/26 00:16:45;;;;;;;11.90;6.38;;;18.90;51.40;;;;;;5042789;28;20031;-57
2022/03/26 00:19:10;;;;;;;12.07;6.45;;;18.90;51.40;;;;;;5043993;28;20069;-57
2022/03/26 00:21:36;;;;;;;12.10;6.53;;;18.90;51.40;;;;;;5043139;28;20056;-57
2022/03/26 00:24:02;;;;;;;10.68;5.90;;;18.90;51.50;;;;;;5044898;28;20032;-57
2022/03/26 00:26:27;;;;;;;10.68;6.00;;;18.90;51.50;;;;;;5036176;28;20469;-56
2022/03/26 00:28:53;;;;;;;10.18;6.03;;;18.90;51.40;;;;;;5042856;28;20036;-57
2022/03/26 00:31:18;;;;;;;11.07;6.10;;;18.90;51.40;;;;;;5045129;28;20109;-57
2022/03/26 00:33:44;;;;;;;11.35;5.90;;;18.90;51.40;;;;;;5037324;28;20112;-57
2022/03/26 00:36:10;;;;;;;12.85;6.45;;;18.90;51.40;;;;;;5037550;28;20065;-57
2022/03/26 00:38:36;;;;;;;11.50;6.25;;;18.90;51.40;;;;;;5043061;28;20132;-57
2022/03/26 00:41:01;;;;;;;10.80;6.10;;;18.80;51.40;;;;;;5044165;28;20112;-57
2022/03/26 00:43:27;;;;;;;10.73;6.32;;;18.80;51.40;;;;;;5041080;28;20488;-57
2022/03/26 00:45:53;;;;;;;11.10;6.35;;;18.80;51.60;;;;;;5043180;28;20543;-57
2022/03/26 00:48:18;;;;;;;10.45;5.93;;;18.80;51.40;;;;;;5038932;28;20065;-57
2022/03/26 00:50:44;;;;;;;11.77;6.50;;;18.80;51.50;;;;;;5044433;28;20813;-57
2022/03/26 00:53:10;;;;;;;11.48;6.10;;;18.80;51.40;;;;;;5045944;28;20040;-57
2022/03/26 00:55:35;;;;;;;11.85;6.20;;;18.80;51.80;;;;;;5044369;28;20083;-57
2022/03/26 00:58:01;;;;;;;10.70;5.60;;;18.80;51.60;;;;;;5042181;28;20118;-57
2022/03/26 01:00:27;;;;;;;10.05;5.97;;;18.80;51.80;;;;;;5040249;28;20047;-57
2022/03/26 01:02:53;;;;;;;11.40;6.25;;;18.70;51.70;;;;;;5040336;28;20112;-57
2022/03/26 01:05:20;;;;;;;11.43;6.20;;;18.70;51.70;;;;;;5042546;28;20024;-57
2022/03/26 01:07:46;;;;;;;10.98;5.88;;;18.70;51.60;;;;;;5042320;28;20025;-57
2022/03/26 01:10:12;;;;;;;11.20;5.63;;;18.70;51.80;;;;;;5041112;28;20075;-57
2022/03/26 01:12:38;;;;;;;10.10;5.57;;;18.70;52.00;;;;;;5043847;28;20056;-57
2022/03/26 01:15:05;;;;;;;11.60;5.95;;;18.70;51.90;;;;;;5044945;28;20110;-57
2022/03/26 01:17:31;;;;;;;11.18;5.85;;;18.70;52.20;;;;;;5043272;28;20033;-57
2022/03/26 01:19:59;;;;;;;10.93;5.50;;;18.70;52.20;;;;;;5045550;28;20049;-57
2022/03/26 01:22:27;;;;;;;10.13;5.50;;;18.70;52.20;;;;;;5039332;28;20500;-57
2022/03/26 01:24:52;;;;;;;12.27;6.22;;;18.70;52.30;;;;;;5043889;28;20032;-57
2022/03/26 01:27:18;;;;;;;11.60;6.07;;;18.60;52.10;;;;;;5041786;28;20018;-57
2022/03/26 01:29:43;;;;;;;10.73;5.55;;;18.70;52.30;;;;;;5033134;28;20029;-57
2022/03/26 01:32:09;;;;;;;10.85;5.47;;;18.60;52.20;;;;;;5040735;28;20028;-57
2022/03/26 01:34:35;;;;;;;11.13;5.75;;;18.60;52.30;;;;;;5042076;28;20033;-57
2022/03/26 01:37:02;;;;;;;10.32;5.15;;;18.60;52.20;;;;;;5043196;28;20052;-57
2022/03/26 01:39:28;;;;;;;10.52;5.60;;;18.60;52.30;;;;;;5043499;28;20421;-57
2022/03/26 01:41:54;;;;;;;10.43;5.20;;;18.60;52.30;;;;;;5042969;28;20659;-57
2022/03/26 01:44:20;;;;;;;9.18;5.03;;;18.60;52.30;;;;;;5044144;28;20108;-57
2022/03/26 01:46:47;;;;;;;9.88;5.40;;;18.60;52.40;;;;;;5040642;28;20036;-57
2022/03/26 01:49:12;;;;;;;9.50;5.43;;;18.60;51.90;;;;;;5041865;28;20029;-57
2022/03/26 01:51:39;;;;;;;8.95;4.97;;;18.50;52.30;;;;;;5040461;28;20433;-57
2022/03/26 01:54:05;;;;;;;11.25;4.75;;;18.50;52.30;;;;;;5040018;28;20037;-57
2022/03/26 01:56:31;;;;;;;9.98;5.25;;;18.50;52.20;;;;;;5044030;28;20048;-57
2022/03/26 01:58:56;;;;;;;9.82;5.05;;;18.50;52.20;;;;;;5044012;28;20029;-57
2022/03/26 02:01:22;;;;;;;10.85;5.63;;;18.50;52.30;;;;;;5042839;28;20124;-57
2022/03/26 02:03:47;;;;;;;9.40;4.75;;;18.50;52.20;;;;;;5042376;28;20100;-57
2022/03/26 02:06:14;;;;;;;9.95;5.13;;;18.40;52.30;;;;;;5041853;28;20116;-57
2022/03/26 02:08:39;;;;;;;9.55;5.10;;;18.50;52.20;;;;;;5045901;28;20044;-57
2022/03/26 02:11:05;;;;;;;9.20;4.82;;;18.50;52.10;;;;;;5046858;28;20028;-57
2022/03/26 02:13:50;;;;;;;10.45;5.03;;;18.50;52.30;;;;;;5043230;28;20032;-57
2022/03/26 02:16:16;;;;;;;8.98;4.60;;;18.40;52.30;;;;;;5048856;28;20056;-57
2022/03/26 02:18:41;;;;;;;9.95;4.82;;;18.40;52.20;;;;;;5045789;28;20784;-57
2022/03/26 02:21:07;;;;;;;8.77;4.50;;;18.40;52.10;;;;;;5045255;28;20025;-57
2022/03/26 02:23:33;;;;;;;9.30;4.80;;;18.40;52.30;;;;;;5039080;28;20029;-57
2022/03/26 02:25:58;;;;;;;11.00;5.03;;;18.40;52.20;;;;;;5045805;28;20018;-57
2022/03/26 02:28:24;;;;;;;9.80;4.55;;;18.40;52.10;;;;;;5045183;28;20025;-57
2022/03/26 02:30:50;;;;;;;9.85;4.78;;;18.40;52.30;;;;;;5047867;28;20055;-57
2022/03/26 02:33:16;;;;;;;11.20;4.82;;;18.40;52.20;;;;;;5042434;28;20028;-57
2022/03/26 02:35:41;;;;;;;8.05;4.45;;;18.40;52.20;;;;;;5046952;28;20143;-57
2022/03/26 02:38:08;;;;;;;9.35;4.53;;;18.30;51.80;;;;;;5047268;28;20084;-57
2022/03/26 02:40:34;;;;;;;9.35;4.40;;;18.40;52.10;;;;;;5048479;28;20095;-57
2022/03/26 02:43:00;;;;;;;8.43;4.50;;;18.30;52.10;;;;;;5045924;28;20557;-57
2022/03/26 02:45:25;;;;;;;8.02;4.05;;;18.30;52.00;;;;;;5046678;28;20489;-57
2022/03/26 02:47:51;;;;;;;8.35;4.50;;;18.30;52.10;;;;;;5048325;28;20405;-57
2022/03/26 02:50:18;;;;;;;10.73;4.82;;;18.30;52.10;;;;;;5045923;28;20043;-58
2022/03/26 02:52:48;;;;;;;10.90;4.40;;;18.30;51.90;;;;;;5044952;28;20545;-57
2022/03/26 02:55:13;;;;;;;7.97;3.95;;;18.30;51.90;;;;;;5043883;28;20025;-57
2022/03/26 02:57:39;;;;;;;8.77;4.40;;;18.30;51.90;;;;;;5040695;28;20528;-57
2022/03/26 03:00:05;;;;;;;9.80;4.88;;;18.30;51.90;;;;;;5034549;28;20086;-57
2022/03/26 03:02:31;;;;;;;9.15;4.55;;;18.30;52.00;;;;;;5043264;28;20558;-57
2022/03/26 03:04:57;;;;;;;9.25;4.88;;;18.30;51.80;;;;;;5044207;28;20033;-57
2022/03/26 03:07:22;;;;;;;8.48;4.38;;;18.20;51.90;;;;;;5038049;28;20537;-57
2022/03/26 03:09:48;;;;;;;8.38;4.10;;;18.30;52.10;;;;;;5042335;28;20112;-57
2022/03/26 03:12:14;;;;;;;8.43;4.05;;;18.30;51.70;;;;;;5043193;28;20490;-57
2022/03/26 03:14:40;;;;;;;9.20;4.15;;;18.20;51.90;;;;;;5037442;28;20445;-56
2022/03/26 03:17:06;;;;;;;9.20;4.43;;;18.20;51.70;;;;;;5034008;28;20037;-57
2022/03/26 03:19:31;;;;;;;8.60;4.28;;;18.20;51.60;;;;;;5045524;28;20045;-57
2022/03/26 03:21:57;;;;;;;8.35;4.10;;;18.20;51.90;;;;;;5044430;28;20029;-57
2022/03/26 03:24:23;;;;;;;10.27;4.60;;;18.20;51.80;;;;;;5036866;28;20029;-57
2022/03/26 03:26:48;;;;;;;8.48;4.40;;;18.20;51.70;;;;;;5046462;28;20025;-57
2022/03/26 03:29:14;;;;;;;14.18;4.63;;;18.10;51.50;;;;;;5046543;28;20444;-57
2022/03/26 03:31:44;;;;;;;8.27;4.03;;;18.20;51.70;;;;;;5039893;28;20525;-57
2022/03/26 03:34:10;;;;;;;10.18;4.28;;;18.10;51.70;;;;;;5041759;28;20135;-57
2022/03/26 03:36:36;;;;;;;9.88;4.60;;;18.20;51.60;;;;;;5045160;28;20532;-57
2022/03/26 03:39:01;;;;;;;9.15;4.30;;;18.20;51.70;;;;;;5045642;28;20057;-57
2022/03/26 03:41:27;;;;;;;8.70;4.30;;;18.10;51.60;;;;;;5045128;28;20025;-57
2022/03/26 03:43:52;;;;;;;9.07;4.20;;;18.10;51.60;;;;;;5042387;28;20603;-56
2022/03/26 03:46:18;;;;;;;9.90;4.60;;;18.10;51.60;;;;;;5040729;28;20053;-58
2022/03/26 03:48:44;;;;;;;10.02;4.50;;;18.10;51.60;;;;;;5042059;28;20170;-57
2022/03/26 03:51:09;;;;;;;10.75;4.20;;;18.10;51.60;;;;;;5045964;28;20029;-56
2022/03/26 03:53:35;;;;;;;9.45;4.22;;;18.10;51.60;;;;;;5044983;28;20035;-57
2022/03/26 03:56:01;;;;;;;8.02;3.92;;;18.10;51.40;;;;;;5044819;28;20397;-57
2022/03/26 03:58:26;;;;;;;8.88;4.38;;;18.10;51.60;;;;;;5044893;28;20021;-57
2022/03/26 04:00:52;;;;;;;7.47;3.85;;;18.00;51.50;;;;;;5038863;28;20036;-57
2022/03/26 04:03:18;;;;;;;9.85;4.05;;;18.00;51.60;;;;;;5042230;28;20029;-57
2022/03/26 04:05:43;;;;;;;9.48;4.43;;;18.00;51.60;;;;;;5043577;28;20033;-57
2022/03/26 04:08:09;;;;;;;8.30;4.43;;;18.00;51.60;;;;;;5040202;28;20450;-57
2022/03/26 04:10:34;;;;;;;8.48;4.10;;;18.00;51.60;;;;;;5041853;28;20033;-57
2022/03/26 04:13:00;;;;;;;8.63;4.20;;;18.00;51.60;;;;;;5041476;28;20044;-57
2022/03/26 04:15:26;;;;;;;9.40;4.60;;;18.00;51.70;;;;;;5041063;28;20045;-57
2022/03/26 04:17:54;;;;;;;9.40;4.30;;;18.00;51.60;;;;;;5041247;28;20017;-57
2022/03/26 04:20:20;;;;;;;9.40;4.40;;;18.00;51.70;;;;;;5044112;28;20036;-57
2022/03/26 04:22:46;;;;;;;9.75;4.57;;;18.00;51.70;;;;;;5040844;28;20025;-57
2022/03/26 04:25:11;;;;;;;9.25;4.25;;;18.00;51.70;;;;;;5042979;28;20503;-57
2022/03/26 04:27:41;;;;;;;9.60;4.45;;;18.00;51.70;;;;;;5044196;28;20028;-57
2022/03/26 04:30:07;;;;;;;9.07;4.53;;;17.90;51.60;;;;;;5043747;28;20056;-57
2022/03/26 04:32:34;;;;;;;8.27;4.18;;;17.90;51.60;;;;;;5039246;28;20031;-57
2022/03/26 04:34:59;;;;;;;8.35;4.28;;;17.90;51.70;;;;;;5042005;28;20044;-57
2022/03/26 04:37:25;;;;;;;9.40;4.32;;;17.90;51.70;;;;;;5044064;28;20060;-57
2022/03/26 04:39:51;;;;;;;10.50;4.50;;;17.90;51.70;;;;;;5042809;28;20029;-57
2022/03/26 04:42:16;;;;;;;10.05;4.50;;;17.90;51.70;;;;;;5039219;28;20017;-57
2022/03/26 04:44:42;;;;;;;11.25;4.65;;;17.90;51.80;;;;;;5039050;28;20075;-57
2022/03/26 04:47:08;;;;;;;10.00;4.20;;;17.90;51.80;;;;;;5046336;28;20057;-57
2022/03/26 04:49:33;;;;;;;10.70;4.90;;;17.80;51.70;;;;;;5044715;28;20126;-56
2022/03/26 04:51:59;;;;;;;10.07;4.88;;;17.80;52.70;;;;;;5035545;28;20025;-57
2022/03/26 04:54:25;;;;;;;9.80;4.47;;;17.80;51.70;;;;;;5042611;28;20824;-57
2022/03/26 04:56:51;;;;;;;9.10;4.63;;;17.80;51.70;;;;;;5040435;28;20058;-57
2022/03/26 04:59:16;;;;;;;10.80;4.53;;;17.80;51.70;;;;;;5042841;28;20105;-57
2022/03/26 05:01:44;;;;;;;9.45;4.57;;;17.80;51.70;;;;;;5040089;28;20029;-57
2022/03/26 05:04:11;;;;;;;10.98;4.90;;;17.80;51.80;;;;;;5039482;28;20041;-57
2022/03/26 05:06:37;;;;;;;8.48;4.47;;;17.80;51.80;;;;;;5042559;28;20025;-57
2022/03/26 05:09:02;;;;;;;9.57;4.60;;;17.80;51.80;;;;;;5043821;28;20025;-57
2022/03/26 05:11:28;;;;;;;11.30;4.90;;;17.80;51.80;;;;;;5044993;28;20040;-57
2022/03/26 05:13:54;;;;;;;9.93;4.57;;;17.80;51.80;;;;;;5041602;28;20048;-57
2022/03/26 05:16:20;;;;;;;10.07;5.20;;;17.80;51.90;;;;;;5035751;28;20075;-57
2022/03/26 05:18:45;;;;;;;10.93;4.65;;;17.70;51.80;;;;;;5039619;28;20032;-56
2022/03/26 05:21:11;;;;;;;8.98;4.50;;;17.80;51.90;;;;;;5043861;28;20441;-57
2022/03/26 05:23:36;;;;;;;11.05;4.82;;;17.70;51.80;;;;;;5043162;28;20025;-56
2022/03/26 05:26:03;;;;;;;10.52;5.07;;;17.70;51.90;;;;;;5038793;28;20030;-57
2022/03/26 05:28:29;;;;;;;10.25;5.10;;;17.70;51.90;;;;;;5042687;28;20056;-57
2022/03/26 05:30:54;;;;;;;9.85;4.95;;;17.70;51.80;;;;;;5044372;28;20476;-57
2022/03/26 05:33:20;;;;;;;13.00;5.75;;;17.70;51.90;;;;;;5038656;28;20045;-57
2022/03/26 05:35:46;;;;;;;11.23;5.15;;;17.70;51.90;;;;;;5043526;28;20028;-57
2022/03/26 05:38:11;;;;;;;9.95;4.78;;;17.70;51.90;;;;;;5034395;28;20045;-57
2022/03/26 05:40:37;;;;;;;11.55;4.90;;;17.70;51.90;;;;;;5039766;28;20045;-56
2022/03/26 05:43:03;;;;;;;9.82;4.97;;;17.60;51.90;;;;;;5048101;28;20607;-57
2022/03/26 05:45:29;;;;;;;9.65;5.03;;;17.70;51.90;;;;;;5041266;28;20033;-56
2022/03/26 05:48:00;;;;;;;9.90;4.93;;;17.60;51.90;;;;;;5047322;28;20041;-57
2022/03/26 05:50:26;;;;;;;11.57;5.20;;;17.70;52.00;;;;;;5041946;28;20039;-57
2022/03/26 05:52:51;;;;;;;10.50;5.45;;;17.60;51.90;;;;;;5043547;28;20020;-57
2022/03/26 05:55:17;;;;;;;11.35;6.00;;;17.60;51.90;;;;;;5044179;28;20060;-57
2022/03/26 05:57:43;;;;;;;11.75;5.47;;;17.60;52.00;;;;;;5046624;28;20103;-57
2022/03/26 06:00:10;;;;;;;10.43;5.40;;;17.60;51.90;;;;;;5045655;28;20037;-57
2022/03/26 06:02:36;;;;;;;9.43;4.90;;;17.60;52.00;;;;;;5038529;28;20057;-57
2022/03/26 06:05:02;;;;;;;9.40;5.13;;;17.60;52.00;;;;;;5043512;28;20053;-56
2022/03/26 06:07:28;;;;;;;11.05;5.38;;;17.60;52.00;;;;;;5046207;28;20029;-57
2022/03/26 06:09:53;;;;;;;10.40;5.45;;;17.60;52.00;;;;;;5041849;28;20017;-57
2022/03/26 06:12:20;;;;;;;11.50;5.57;;;17.60;52.00;;;;;;5044777;28;20033;-57
2022/03/26 06:14:46;;;;;;;10.02;5.45;;;17.50;52.00;;;;;;5048094;28;20041;-56
2022/03/26 06:17:11;;;;;;;9.43;5.35;;;17.50;52.00;;;;;;5042517;28;20410;-57
2022/03/26 06:19:38;;;;;;;11.27;5.32;;;17.50;52.00;;;;;;5039548;28;20041;-56
2022/03/26 06:22:04;;;;;;;10.50;5.63;;;17.50;52.10;;;;;;5044942;28;20063;-57
2022/03/26 06:24:30;;;;;;;10.88;6.00;;;17.50;52.00;;;;;;5044301;28;20022;-57
2022/03/26 06:26:55;;;;;;;11.65;5.65;;;17.50;52.00;;;;;;5044605;28;20032;-57
2022/03/26 06:29:21;;;;;;;11.43;5.25;;;17.50;52.10;;;;;;5041412;28;20050;-57
2022/03/26 06:31:47;;;;;;;10.60;5.13;;;17.50;52.10;;;;;;5044629;28;20057;-57
2022/03/26 06:34:13;;;;;;;12.20;5.95;;;17.50;52.10;;;;;;5045843;28;20029;-57
2022/03/26 06:36:39;;;;;;;10.15;5.10;;;17.50;52.10;;;;;;5043512;28;20127;-57
2022/03/26 06:39:08;;;;;;;9.65;5.65;;;17.50;52.10;;;;;;5045135;28;20029;-57
2022/03/26 06:41:38;;;;;;;10.20;5.10;;;17.50;52.10;;;;;;5045472;28;20035;-56
2022/03/26 06:44:09;;;;;;;11.85;5.93;;;17.50;52.10;;;;;;5047777;28;20068;-56
2022/03/26 06:46:35;;;;;;;10.55;5.60;;;17.50;52.10;;;;;;5045588;28;20031;-57
2022/03/26 06:49:02;;;;;;;10.68;5.40;;;17.50;52.20;;;;;;5041771;28;20120;-57
2022/03/26 06:51:27;;;;;;;10.30;5.57;;;17.40;52.10;;;;;;5050998;28;20026;-56
2022/03/26 06:53:54;;;;;;;11.07;6.05;;;17.40;52.10;;;;;;5044938;28;20076;-57
2022/03/26 06:56:19;;;;;;;10.52;5.80;;;17.40;52.10;;;;;;5045731;28;20025;-57
2022/03/26 06:58:45;;;;;;;12.25;6.18;;;17.40;52.30;;;;;;5056341;28;20047;-57
2022/03/26 07:01:11;;;;;;;11.90;5.47;;;17.40;52.20;;;;;;5041412;28;20448;-57
2022/03/26 07:03:38;;;;;;;12.25;5.82;;;17.40;52.10;;;;;;5043321;28;20496;-57
2022/03/26 07:06:04;;;;;;;12.05;6.20;;;17.40;52.10;;;;;;5044243;28;20017;-57
2022/03/26 07:08:30;;;;;;;12.98;5.72;;;17.40;52.20;;;;;;5043580;28;20416;-57
2022/03/26 07:10:56;;;;;;;11.45;5.88;;;17.40;52.10;;;;;;5047038;28;20107;-57
2022/03/26 07:13:21;;;;;;;12.88;6.35;;;17.40;52.20;;;;;;5039402;28;20037;-57
2022/03/26 07:15:47;;;;;;;10.77;6.30;;;17.40;52.20;;;;;;5042230;28;20021;-57
2022/03/26 07:18:13;;;;;;;11.10;6.13;;;17.40;52.30;;;;;;5046617;28;20123;-57
2022/03/26 07:20:39;;;;;;;10.50;5.65;;;17.40;53.30;;;;;;5046425;28;20106;-57
2022/03/26 07:23:04;;;;;;;11.07;6.15;;;17.30;52.20;;;;;;5042157;28;20115;-57
2022/03/26 07:25:30;;;;;;;12.40;6.30;;;17.30;52.20;;;;;;5043162;28;20096;-56
2022/03/26 07:27:56;;;;;;;10.80;5.78;;;17.30;52.30;;;;;;5036938;28;20033;-56
2022/03/26 07:30:22;;;;;;;11.43;5.95;;;17.30;52.30;;;;;;5039513;28;20490;-57
2022/03/26 07:32:47;;;;;;;10.73;5.90;;;17.30;52.30;;;;;;5043390;28;20077;-57
2022/03/26 07:35:13;;;;;;;11.93;5.97;;;17.30;52.30;;;;;;5041231;28;20021;-57
2022/03/26 07:37:39;;;;;;;9.18;5.75;;;17.30;52.50;;;;;;5042957;28;20041;-57
2022/03/26 07:40:05;;;;;;;14.50;6.38;;;17.30;52.70;;;;;;5039974;28;20052;-57
2022/03/26 07:42:30;;;;;;;11.95;5.75;;;17.30;53.20;;;;;;5042296;28;20021;-58
2022/03/26 07:44:56;;;;;;;13.10;6.30;;;17.30;53.40;;;;;;5040893;28;20060;-57
2022/03/26 07:47:23;;;;;;;11.63;6.03;;;17.40;53.60;;;;;;5045318;28;20025;-58
2022/03/26 07:49:48;;;;;;;13.43;6.47;;;17.40;53.90;;;;;;5043584;28;20116;-58
2022/03/26 07:52:14;;;;;;;12.60;6.30;;;17.40;54.10;;;;;;5042941;28;20492;-57
2022/03/26 07:54:40;;;;;;;10.88;5.65;;;17.40;54.20;;;;;;5038996;28;20024;-58
2022/03/26 07:57:06;;;;;;;10.68;5.65;;;17.40;54.30;;;;;;5039959;28;20029;-58
2022/03/26 07:59:31;;;;;;;12.80;5.88;;;17.40;54.20;;;;;;5041143;28;20033;-57
2022/03/26 08:01:57;;;;;;;12.68;6.72;;;17.40;54.20;;;;;;5042482;28;20105;-57
2022/03/26 08:04:23;;;;;;;15.50;7.35;;;17.50;54.10;;;;;;5028690;28;20548;-58
2022/03/26 08:06:49;;;;;;;11.38;6.30;;;17.50;54.20;;;;;;5035204;28;20029;-57
2022/03/26 08:09:14;;;;;;;13.27;6.03;;;17.50;54.20;;;;;;5037893;28;20063;-57
2022/03/26 08:11:40;;;;;;;11.45;6.45;;;17.50;54.10;;;;;;5036582;28;20037;-58
2022/03/26 08:14:06;;;;;;;12.55;7.07;;;17.50;54.20;;;;;;5033395;28;20037;-57
2022/03/26 08:16:31;;;;;;;13.88;6.65;;;17.50;54.20;;;;;;5041468;28;20068;-58
2022/03/26 08:18:57;;;;;;;14.13;6.53;;;17.50;54.60;;;;;;5042779;28;20029;-57
2022/03/26 08:21:22;;;;;;;13.70;7.20;;;17.50;55.00;;;;;;5041457;28;20037;-58
2022/03/26 08:23:48;;;;;;;16.42;7.85;;;17.50;55.40;;;;;;5041550;28;20037;-57
2022/03/26 08:26:20;;;;;;;16.20;7.22;;;17.50;55.80;;;;;;5044797;28;20025;-57
2022/03/26 08:28:46;;;;;;;15.68;7.65;;;17.60;55.60;;;;;;5039950;28;20112;-58
2022/03/26 08:31:13;;;;;;;17.10;7.05;;;17.50;56.40;;;;;;5042269;28;20108;-57
2022/03/26 08:33:39;;;;;;;15.55;7.18;;;17.60;56.50;;;;;;5037688;28;20037;-58
2022/03/26 08:36:05;;;;;;;17.15;7.47;;;17.60;56.40;;;;;;5041220;28;20103;-57
2022/03/26 08:38:31;;;;;;;16.67;7.70;;;17.60;56.10;;;;;;5037057;28;20068;-57
2022/03/26 08:40:56;;;;;;;15.15;7.55;;;17.60;56.00;;;;;;5041576;28;20075;-57
2022/03/26 08:43:22;;;;;;;17.42;8.27;;;17.60;55.90;;;;;;5039786;28;20059;-57
2022/03/26 08:45:48;;;;;;;15.32;8.07;;;17.70;55.90;;;;;;5036367;28;20037;-57
2022/03/26 08:48:15;;;;;;;15.25;7.75;;;17.70;55.80;;;;;;5041112;28;20028;-57
2022/03/26 08:50:41;;;;;;;17.10;7.43;;;17.60;56.80;;;;;;5036968;28;20466;-58
2022/03/26 08:53:07;;;;;;;20.55;8.55;;;17.70;55.70;;;;;;5041839;28;20029;-57
2022/03/26 08:55:32;;;;;;;19.42;8.82;;;17.60;55.70;;;;;;5039172;28;20086;-57
2022/03/26 08:57:58;;;;;;;18.50;8.52;;;17.70;55.80;;;;;;5037782;28;20094;-57
2022/03/26 09:00:26;;;;;;;19.05;9.48;;;17.70;55.70;;;;;;5040068;28;20528;-58
2022/03/26 09:02:52;;;;;;;18.25;8.98;;;17.70;55.70;;;;;;5040435;28;20029;-57
2022/03/26 09:05:17;;;;;;;18.38;8.82;;;17.70;55.70;;;;;;5040777;28;20059;-57
2022/03/26 09:07:43;;;;;;;18.88;8.90;;;17.70;55.70;;;;;;5041461;28;20456;-57
2022/03/26 09:10:09;;;;;;;18.10;9.40;;;17.70;55.60;;;;;;5041275;28;20025;-57
2022/03/26 09:12:34;;;;;;;21.20;11.05;;;17.70;55.60;;;;;;5037675;28;20112;-57
2022/03/26 09:15:00;;;;;;;20.55;10.65;;;17.70;55.70;;;;;;5040605;28;20570;-57
2022/03/26 09:17:26;;;;;;;20.65;10.75;;;17.70;55.60;;;;;;5037150;28;20025;-57
2022/03/26 09:19:52;;;;;;;18.30;10.60;;;17.70;55.60;;;;;;5040530;28;20029;-57
2022/03/26 09:22:17;;;;;;;20.05;10.25;;;17.70;55.60;;;;;;5038187;28;20595;-57
2022/03/26 09:24:43;;;;;;;20.98;10.95;;;17.70;55.60;;;;;;5043067;28;20040;-57
2022/03/26 09:27:09;;;;;;;18.13;11.13;;;17.70;55.70;;;;;;5042265;28;20482;-57
2022/03/26 09:29:36;;;;;;;22.02;11.25;;;17.70;56.50;;;;;;5041899;28;20149;-57
2022/03/26 09:32:03;;;;;;;21.98;11.23;;;17.80;55.60;;;;;;5043907;28;20474;-57
2022/03/26 09:34:28;;;;;;;17.38;10.45;;;17.80;55.80;;;;;;5043984;28;20196;-57
2022/03/26 09:36:54;;;;;;;17.85;10.32;;;17.80;55.70;;;;;;5039811;28;20120;-57
2022/03/26 09:39:20;;;;;;;20.63;10.70;;;17.80;55.70;;;;;;5042439;28;20328;-57
2022/03/26 09:41:46;;;;;;;17.80;10.45;;;17.80;55.60;;;;;;5037531;28;20029;-57
2022/03/26 09:44:12;;;;;;;18.25;10.68;;;17.80;55.70;;;;;;5038210;28;20103;-57
2022/03/26 09:46:38;;;;;;;21.95;10.95;;;17.80;55.70;;;;;;5039844;28;20630;-57
2022/03/26 09:49:04;;;;;;;21.90;11.65;;;17.80;55.50;;;;;;5040615;28;20021;-57
2022/03/26 09:51:29;;;;;;;19.95;11.95;;;17.90;55.60;;;;;;5034194;28;20041;-57
2022/03/26 09:53:56;;;;;;;19.45;10.85;;;17.90;55.60;;;;;;5035503;28;20104;-56
2022/03/26 09:56:23;;;;;;;18.77;10.65;;;17.90;55.60;;;;;;5042287;28;20139;-56
2022/03/26 09:58:51;;;;;;;20.45;11.25;;;17.90;55.70;;;;;;5039078;28;20072;-56
2022/03/26 10:01:17;;;;;;;19.15;11.20;;;17.90;55.50;;;;;;5039047;28;20033;-56
2022/03/26 10:04:09;;;;;;;20.40;10.93;;;17.90;55.60;;;;;;5041853;28;20413;-56
2022/03/26 10:06:35;;;;;;;19.05;11.18;;;17.90;55.60;;;;;;5042041;28;20083;-56
2022/03/26 10:09:00;;;;;;;24.35;12.35;;;18.00;55.50;;;;;;5034266;28;20025;-57
2022/03/26 10:11:31;;;;;;;20.17;11.27;;;18.00;55.50;;;;;;5035564;28;20029;-57
2022/03/26 10:13:57;;;;;;;20.45;12.00;;;18.00;55.50;;;;;;5021523;28;20044;-57
2022/03/26 10:16:23;;;;;;;21.25;11.23;;;18.00;55.40;;;;;;5036832;28;20029;-57
2022/03/26 10:18:50;;;;;;;19.25;11.02;;;18.00;55.30;;;;;;5038050;28;20029;-56
2022/03/26 10:21:20;;;;;;;22.35;12.00;;;18.00;55.40;;;;;;5035294;28;20112;-57
2022/03/26 10:23:47;;;;;;;18.77;10.60;;;18.10;55.40;;;;;;5031001;28;20033;-56
2022/03/26 10:26:13;;;;;;;18.23;11.02;;;18.10;55.30;;;;;;5052486;28;20437;-57
2022/03/26 10:28:42;;;;;;;21.77;11.13;;;18.10;55.20;;;;;;5044724;28;20029;-57
2022/03/26 10:34:09;;;;;;;26.38;17.67;;;18.10;55.70;;;;;;5044934;28;20507;-57
2022/03/26 10:36:39;;;;;;;33.67;21.02;;;18.20;55.60;;;;;;5039989;28;20600;-56
2022/03/26 10:39:06;;;;;;;38.03;22.33;;;18.20;55.50;;;;;;5040366;28;20048;-56
2022/03/26 10:41:36;;;;;;;34.85;22.30;;;18.20;55.30;;;;;;5040688;28;20029;-56
2022/03/26 10:44:07;;;;;;;38.85;24.75;;;18.20;55.10;;;;;;5042235;28;20017;-56
2022/03/26 10:46:52;;;;;;;39.38;25.83;;;18.20;54.90;;;;;;5043079;28;20029;-56
2022/03/26 10:49:38;;;;;;;42.90;27.38;;;18.20;54.70;;;;;;5045558;28;20032;-56
2022/03/26 10:52:16;;;;;;;;;;;18.20;54.40;;;;;;5047745;28;20021;-56
2022/03/26 10:54:42;;;;;;;43.08;27.88;;;18.20;54.20;;;;;;5038601;28;19920;-57
2022/03/26 10:57:08;;;;;;;41.92;28.23;;;18.20;53.90;;;;;;5038728;28;20393;-56
2022/03/26 10:59:33;;;;;;;42.78;29.30;;;18.20;53.80;;;;;;5044471;28;20540;-56
2022/03/26 11:01:59;;;;;;;42.63;29.13;;;18.30;53.50;;;;;;5044903;28;20033;-56
2022/03/26 11:04:28;;;;;;;42.92;29.05;;;18.30;53.50;;;;;;5041822;28;20032;-57
2022/03/26 11:06:55;;;;;;;46.03;29.55;;;18.30;53.20;;;;;;5046228;28;20025;-56
2022/03/26 11:09:21;;;;;;;41.90;28.90;;;18.30;53.30;;;;;;5039460;28;20517;-57
2022/03/26 11:11:48;;;;;;;44.13;31.42;;;18.30;53.00;;;;;;5042877;28;20032;-56
2022/03/26 11:14:24;;;;;;;42.60;30.45;;;18.30;52.90;;;;;;5043801;28;20028;-57
2022/03/26 11:17:16;;;;;;;44.60;31.63;;;18.30;52.90;;;;;;5031543;28;20064;-57
2022/03/26 11:20:17;;;;;;;43.63;30.52;;;18.40;52.80;;;;;;5035885;28;20039;-57
2022/03/26 11:23:19;;;;;;;42.35;29.52;;;18.40;52.70;;;;;;4986654;28;20031;-57
2022/03/26 11:26:00;;;;;;;41.40;30.77;;;18.40;52.60;;;;;;4983705;28;20089;-57
2022/03/26 11:28:51;;;;;;;41.88;29.40;;;18.50;52.50;;;;;;4982867;28;20153;-57
2022/03/26 11:31:48;;;;;;;44.22;30.65;;;18.50;52.40;;;;;;4969720;28;20075;-57
2022/03/26 11:34:16;;;;;;;45.28;30.17;;;18.50;52.20;;;;;;4946739;29;20035;-57
2022/03/26 11:36:42;;;;;;;41.75;28.30;;;18.50;51.80;;;;;;4943918;29;20075;-57
2022/03/26 11:39:18;;;;;;;47.28;31.23;;;18.50;51.90;;;;;;4943596;28;20047;-57
2022/03/26 11:41:47;;;;;;;46.08;31.73;;;18.50;51.90;;;;;;4946729;29;20035;-57
2022/03/26 11:44:15;;;;;;;43.38;29.65;;;18.50;51.70;;;;;;4945925;29;20046;-57
2022/03/26 11:52:35;;;;;;;;;;;18.60;51.40;;;;;;4944238;28;20205;-57
2022/03/26 11:55:02;;;;;;;44.88;30.55;;;18.60;51.30;;;;;;4940485;28;19929;-57
2022/03/26 11:57:28;;;;;;;41.10;29.42;;;18.60;51.20;;;;;;4936013;28;20495;-57
2022/03/26 11:59:54;;;;;;;43.45;30.45;;;18.60;51.10;;;;;;4982093;28;20151;-57
2022/03/26 12:02:24;;;;;;;45.95;32.70;;;18.70;51.30;;;;;;4979561;28;20034;-58
2022/03/26 12:04:58;;;;;;;49.33;33.67;;;18.70;50.70;;;;;;4981003;28;20485;-57
2022/03/26 12:07:29;;;;;;;61.08;35.75;;;18.70;50.30;;;;;;4978966;28;20034;-57
2022/03/26 12:10:11;;;;;;;52.33;33.92;;;18.60;50.30;;;;;;4982479;28;20041;-57
2022/03/26 12:13:02;;;;;;;47.63;34.00;;;18.60;50.10;;;;;;5040537;28;20029;-57
2022/03/26 12:15:34;;;;;;;48.28;33.03;;;18.60;50.30;;;;;;5041440;28;20025;-57
2022/03/26 12:18:10;;;;;;;52.95;33.53;;;18.70;50.30;;;;;;5044244;28;20032;-57
2022/03/26 12:20:42;;;;;;;50.10;32.88;;;18.80;50.10;;;;;;5043305;28;20045;-57
2022/03/26 12:23:10;;;;;;;48.20;32.20;;;18.90;50.10;;;;;;5038210;28;20040;-57
2022/03/26 12:25:51;;;;;;;47.85;31.85;;;19.00;50.10;;;;;;5040411;28;20028;-57
2022/03/26 12:28:24;;;;;;;51.47;33.25;;;19.10;50.00;;;;;;5038283;28;20039;-57
2022/03/26 12:30:56;;;;;;;49.22;32.45;;;19.10;50.20;;;;;;5041859;28;20086;-57
2022/03/26 12:33:22;;;;;;;43.95;30.42;;;19.20;50.30;;;;;;5042133;28;20812;-57
2022/03/26 12:35:50;;;;;;;47.00;31.65;;;19.20;50.20;;;;;;5042611;28;20033;-57
2022/03/26 12:38:16;;;;;;;45.05;32.05;;;19.30;51.30;;;;;;5041377;28;20063;-57
2022/03/26 12:40:52;;;;;;;47.13;33.33;;;19.30;51.00;;;;;;5034732;28;20045;-56
2022/03/26 12:43:18;;;;;;;50.20;33.92;;;19.40;50.60;;;;;;5039317;28;20028;-57
2022/03/26 12:45:43;;;;;;;54.47;34.58;;;19.40;50.60;;;;;;5040883;28;20025;-57
2022/03/26 12:48:12;;;;;;;57.05;36.28;;;19.50;50.50;;;;;;5039474;28;20056;-57